Time;durP1;ratioP1;P1;durP2;ratioP2;P2;SDS_P1;SDS_P2;PMS_P1;PMS_P2;Temp;Humidity;BMP_temperature;BMP_pressure;BME280_temperature;BME280_humidity;BME280_pressure;Samples;Min_cycle;Max_cycle;Signal;HPM_P1;HPM_P2
2022/03/23 00:01:24;;;;;;;0.30;0.30;;;5.30;60.30;;;;;;5055316;28;20652;-62
2022/03/23 00:03:49;;;;;;;0.40;0.40;;;5.40;60.00;;;;;;5055506;28;20224;-62
2022/03/23 00:06:17;;;;;;;0.30;0.30;;;5.40;59.70;;;;;;5055550;28;20225;-62
2022/03/23 00:08:43;;;;;;;0.30;0.30;;;5.30;59.30;;;;;;5055525;28;20186;-62
2022/03/23 00:11:09;;;;;;;0.40;0.40;;;5.30;58.60;;;;;;5055077;28;20182;-62
2022/03/23 00:13:35;;;;;;;0.30;0.30;;;5.30;58.50;;;;;;5055302;28;20174;-62
2022/03/23 00:16:00;;;;;;;0.30;0.30;;;5.40;58.70;;;;;;5055512;28;20251;-63
2022/03/23 00:18:26;;;;;;;0.30;0.30;;;5.40;58.80;;;;;;5055173;28;20180;-62
2022/03/23 00:20:52;;;;;;;0.33;0.33;;;5.40;59.10;;;;;;5054988;28;20170;-61
2022/03/23 00:23:17;;;;;;;0.30;0.30;;;5.30;58.40;;;;;;5055074;28;20167;-62
2022/03/23 00:25:43;;;;;;;1.27;0.80;;;5.20;58.70;;;;;;5054936;28;20650;-62
2022/03/23 00:28:09;;;;;;;0.40;0.40;;;5.20;58.10;;;;;;5055244;28;20232;-62
2022/03/23 00:30:35;;;;;;;0.30;0.30;;;5.20;58.30;;;;;;5054690;28;20178;-63
2022/03/23 00:33:05;;;;;;;0.40;0.40;;;5.30;58.40;;;;;;5054917;28;20729;-62
2022/03/23 00:35:31;;;;;;;0.30;0.30;;;5.30;58.50;;;;;;5054877;28;20165;-62
2022/03/23 00:37:58;;;;;;;0.30;0.30;;;5.30;58.60;;;;;;5054782;28;20616;-62
2022/03/23 00:40:25;;;;;;;0.40;0.40;;;5.30;59.10;;;;;;5054692;28;20405;-61
2022/03/23 00:42:50;;;;;;;0.30;0.30;;;5.30;59.60;;;;;;5054700;28;20188;-63
2022/03/23 00:45:17;;;;;;;0.30;0.30;;;5.20;60.10;;;;;;5054734;28;20170;-62
2022/03/23 00:47:44;;;;;;;0.30;0.30;;;5.20;60.30;;;;;;5054600;28;20192;-62
2022/03/23 00:50:10;;;;;;;0.30;0.30;;;5.20;60.60;;;;;;5054507;28;20617;-62
2022/03/23 00:52:37;;;;;;;0.30;0.30;;;5.20;60.90;;;;;;5054567;28;20208;-61
2022/03/23 00:55:04;;;;;;;0.30;0.30;;;5.20;61.10;;;;;;5054277;28;20189;-63
2022/03/23 00:57:30;;;;;;;0.30;0.30;;;5.10;60.80;;;;;;5054107;28;20194;-63
2022/03/23 00:59:56;;;;;;;0.70;0.70;;;5.10;61.00;;;;;;5053995;28;20178;-62
2022/03/23 01:02:21;;;;;;;0.30;0.30;;;5.10;60.70;;;;;;5054358;28;20295;-62
2022/03/23 01:04:47;;;;;;;0.37;0.37;;;5.10;60.40;;;;;;5054319;28;20186;-63
2022/03/23 01:07:12;;;;;;;0.30;0.30;;;5.10;60.60;;;;;;5054112;28;20615;-62
2022/03/23 01:09:38;;;;;;;0.30;0.30;;;5.10;60.40;;;;;;5054173;28;20198;-62
2022/03/23 01:12:04;;;;;;;0.30;0.30;;;5.10;60.90;;;;;;5054000;28;20240;-62
2022/03/23 01:14:30;;;;;;;0.40;0.40;;;5.10;60.10;;;;;;5054139;28;20172;-61
2022/03/23 01:16:55;;;;;;;0.40;0.40;;;5.10;60.00;;;;;;5054143;28;20482;-62
2022/03/23 01:19:25;;;;;;;0.30;0.30;;;5.10;60.20;;;;;;5053931;28;20166;-62
2022/03/23 01:21:51;;;;;;;0.30;0.30;;;5.10;60.40;;;;;;5053924;28;20234;-61
2022/03/23 01:24:17;;;;;;;0.30;0.30;;;5.00;60.80;;;;;;5054228;28;20182;-61
2022/03/23 01:26:43;;;;;;;0.30;0.30;;;5.00;61.40;;;;;;5053834;28;20203;-63
2022/03/23 01:29:09;;;;;;;0.30;0.30;;;5.00;61.00;;;;;;5053405;28;20415;-63
2022/03/23 01:31:34;;;;;;;0.30;0.30;;;5.00;60.70;;;;;;5053292;28;20194;-62
2022/03/23 01:34:00;;;;;;;0.30;0.30;;;5.10;60.90;;;;;;5053838;28;20548;-62
2022/03/23 01:36:30;;;;;;;0.40;0.40;;;5.10;60.80;;;;;;5053752;28;20494;-62
2022/03/23 01:38:59;;;;;;;0.30;0.30;;;5.10;60.80;;;;;;5053841;28;20808;-62
2022/03/23 01:41:25;;;;;;;0.30;0.30;;;5.10;61.00;;;;;;5053532;28;20256;-61
2022/03/23 01:43:51;;;;;;;0.50;0.50;;;5.10;61.30;;;;;;5053476;28;20510;-61
2022/03/23 01:46:18;;;;;;;0.40;0.40;;;5.10;61.10;;;;;;5053621;28;20201;-62
2022/03/23 01:48:45;;;;;;;1.15;1.15;;;5.10;60.80;;;;;;5053673;28;20714;-63
2022/03/23 01:51:11;;;;;;;0.32;0.32;;;5.10;59.90;;;;;;5053233;28;20261;-62
2022/03/23 01:53:37;;;;;;;0.30;0.30;;;5.10;59.70;;;;;;5053620;28;20194;-62
2022/03/23 01:56:03;;;;;;;0.38;0.38;;;5.10;59.90;;;;;;5053244;28;20219;-63
2022/03/23 01:58:29;;;;;;;0.30;0.30;;;5.10;59.80;;;;;;5053612;28;20590;-61
2022/03/23 02:00:55;;;;;;;0.40;0.40;;;5.10;59.90;;;;;;5053107;28;20192;-63
2022/03/23 02:03:20;;;;;;;0.60;0.60;;;5.20;60.40;;;;;;5053302;28;20248;-61
2022/03/23 02:05:47;;;;;;;0.30;0.30;;;5.10;60.40;;;;;;5053224;28;20513;-61
2022/03/23 02:08:12;;;;;;;0.30;0.30;;;5.10;61.40;;;;;;5053251;28;20531;-62
2022/03/23 02:10:39;;;;;;;0.30;0.30;;;5.00;62.00;;;;;;5053065;28;20174;-62
2022/03/23 02:13:05;;;;;;;0.40;0.40;;;5.10;62.40;;;;;;5053332;28;20623;-63
2022/03/23 02:15:31;;;;;;;0.30;0.30;;;5.10;61.70;;;;;;5053003;28;20256;-63
2022/03/23 02:17:57;;;;;;;0.30;0.30;;;5.00;61.20;;;;;;5053568;28;20197;-62
2022/03/23 02:20:24;;;;;;;0.35;0.35;;;5.00;61.70;;;;;;5052978;28;20166;-62
2022/03/23 02:22:50;;;;;;;0.30;0.30;;;4.90;62.50;;;;;;5053114;28;20190;-61
2022/03/23 02:25:24;;;;;;;0.30;0.30;;;4.80;63.00;;;;;;5053210;28;20222;-62
2022/03/23 02:27:51;;;;;;;0.40;0.40;;;4.90;63.30;;;;;;5052961;28;20203;-61
2022/03/23 02:30:18;;;;;;;0.30;0.30;;;4.90;62.90;;;;;;5052873;28;20550;-62
2022/03/23 02:32:43;;;;;;;0.40;0.40;;;4.90;62.70;;;;;;5052937;28;20200;-61
2022/03/23 02:35:11;;;;;;;0.70;0.70;;;4.90;62.00;;;;;;5053049;28;20203;-63
2022/03/23 02:37:40;;;;;;;0.40;0.40;;;4.90;62.00;;;;;;5052783;28;20190;-63
2022/03/23 02:40:11;;;;;;;0.30;0.30;;;4.90;62.40;;;;;;5052924;28;20169;-63
2022/03/23 02:42:38;;;;;;;3.95;1.33;;;4.90;63.00;;;;;;5056757;28;20282;-61
2022/03/23 02:45:05;;;;;;;0.30;0.30;;;4.90;63.60;;;;;;5056820;28;20188;-61
2022/03/23 02:47:31;;;;;;;0.50;0.50;;;4.90;63.90;;;;;;5056645;28;20196;-62
2022/03/23 02:49:57;;;;;;;0.40;0.40;;;4.90;63.60;;;;;;5056734;28;20185;-61
2022/03/23 02:52:22;;;;;;;1.50;1.50;;;4.80;63.30;;;;;;5056739;28;20549;-61
2022/03/23 03:03:44;;;;;;;0.40;0.40;;;4.80;64.00;;;;;;5056493;28;20176;-61
2022/03/23 03:06:10;;;;;;;0.30;0.30;;;4.90;65.00;;;;;;5056374;28;20193;-63
2022/03/23 03:08:48;;;;;;;0.30;0.30;;;4.80;64.60;;;;;;5055076;28;20624;-62
2022/03/23 03:11:20;;;;;;;0.40;0.40;;;4.80;64.30;;;;;;5056284;28;20634;-62
2022/03/23 03:13:48;;;;;;;0.30;0.30;;;4.70;64.70;;;;;;5056536;28;20186;-61
2022/03/23 03:16:14;;;;;;;0.40;0.40;;;4.60;65.20;;;;;;5056087;28;20264;-62
2022/03/23 03:18:40;;;;;;;0.40;0.40;;;4.80;65.40;;;;;;5056225;28;20177;-62
2022/03/23 03:21:07;;;;;;;1.07;1.07;;;4.80;64.70;;;;;;5056038;28;20180;-61
2022/03/23 03:23:37;;;;;;;0.30;0.30;;;4.80;65.00;;;;;;5056263;28;20174;-62
2022/03/23 03:26:05;;;;;;;0.30;0.30;;;4.80;64.70;;;;;;5056290;28;20196;-63
2022/03/23 03:28:35;;;;;;;0.30;0.30;;;4.80;64.10;;;;;;5055756;28;20168;-62
2022/03/23 03:31:03;;;;;;;0.30;0.30;;;4.80;64.00;;;;;;5055745;28;20175;-62
2022/03/23 03:33:29;;;;;;;0.30;0.30;;;4.70;65.00;;;;;;5055954;28;20172;-62
2022/03/23 03:35:55;;;;;;;0.30;0.30;;;4.70;65.00;;;;;;5055934;28;20247;-63
2022/03/23 03:38:21;;;;;;;0.40;0.40;;;4.60;65.80;;;;;;5055935;28;20173;-63
2022/03/23 03:40:47;;;;;;;0.33;0.33;;;4.70;66.10;;;;;;5055665;28;20474;-62
2022/03/23 03:43:12;;;;;;;0.30;0.30;;;4.70;65.00;;;;;;5055921;28;20260;-62
2022/03/23 03:45:38;;;;;;;0.60;0.60;;;4.70;65.50;;;;;;5055815;28;20227;-62
2022/03/23 03:48:04;;;;;;;0.30;0.30;;;4.70;65.40;;;;;;5055795;28;20261;-62
2022/03/23 03:50:30;;;;;;;1.80;0.90;;;4.70;66.00;;;;;;5055421;28;20413;-62
2022/03/23 03:52:56;;;;;;;0.30;0.30;;;4.70;66.00;;;;;;5054969;28;20502;-62
2022/03/23 03:55:21;;;;;;;0.37;0.37;;;4.70;66.10;;;;;;5055703;28;20179;-62
2022/03/23 03:57:47;;;;;;;0.50;0.50;;;4.60;66.70;;;;;;5055399;28;20197;-62
2022/03/23 04:00:15;;;;;;;0.30;0.30;;;4.50;67.10;;;;;;5055138;28;20184;-62
2022/03/23 04:02:40;;;;;;;0.40;0.40;;;4.50;67.70;;;;;;5055615;28;20458;-62
2022/03/23 04:05:06;;;;;;;0.30;0.30;;;4.50;67.00;;;;;;5055456;28;20178;-62
2022/03/23 04:07:33;;;;;;;5.75;1.05;;;4.60;66.30;;;;;;5055129;28;20193;-62
2022/03/23 04:10:00;;;;;;;0.40;0.40;;;4.70;65.30;;;;;;5055270;28;20179;-61
2022/03/23 04:12:26;;;;;;;0.30;0.30;;;4.70;65.00;;;;;;5055019;28;20656;-61
2022/03/23 04:14:51;;;;;;;0.30;0.30;;;4.70;65.90;;;;;;5055333;28;20223;-62
2022/03/23 04:17:17;;;;;;;0.30;0.30;;;4.70;66.60;;;;;;5055038;28;20194;-62
2022/03/23 04:19:43;;;;;;;0.40;0.40;;;4.50;67.10;;;;;;5055122;28;20207;-63
2022/03/23 04:22:08;;;;;;;0.37;0.37;;;4.50;67.80;;;;;;5054759;28;20262;-62
2022/03/23 04:24:34;;;;;;;0.30;0.30;;;4.50;68.00;;;;;;5055026;28;20253;-62
2022/03/23 04:26:59;;;;;;;0.30;0.30;;;4.50;68.70;;;;;;5054799;28;20714;-62
2022/03/23 04:29:26;;;;;;;0.40;0.40;;;4.50;69.20;;;;;;5054858;28;20214;-61
2022/03/23 04:31:52;;;;;;;0.40;0.40;;;4.40;69.90;;;;;;5054463;28;20201;-61
2022/03/23 04:34:18;;;;;;;0.90;0.90;;;4.50;70.20;;;;;;5054850;28;20173;-62
2022/03/23 04:36:44;;;;;;;0.40;0.40;;;4.40;69.80;;;;;;5054621;28;20195;-62
2022/03/23 04:39:09;;;;;;;0.40;0.40;;;4.50;69.90;;;;;;5054604;28;20544;-61
2022/03/23 04:41:35;;;;;;;0.30;0.30;;;4.50;70.50;;;;;;5054613;28;20206;-62
2022/03/23 04:44:01;;;;;;;0.30;0.30;;;4.50;71.30;;;;;;5054792;28;20177;-62
2022/03/23 04:46:26;;;;;;;0.30;0.30;;;4.40;71.70;;;;;;5054447;28;20209;-61
2022/03/23 04:48:52;;;;;;;0.40;0.40;;;4.40;71.20;;;;;;5054464;28;20285;-62
2022/03/23 04:51:18;;;;;;;0.30;0.30;;;4.40;71.10;;;;;;5054153;28;20178;-61
2022/03/23 04:53:43;;;;;;;0.30;0.30;;;4.40;71.00;;;;;;5054484;28;20233;-62
2022/03/23 04:56:09;;;;;;;0.40;0.40;;;4.40;71.50;;;;;;5054699;28;20199;-61
2022/03/23 04:58:35;;;;;;;0.30;0.30;;;4.40;70.90;;;;;;5054248;28;20174;-61
2022/03/23 05:01:01;;;;;;;0.40;0.40;;;4.40;70.80;;;;;;5054172;28;20192;-62
2022/03/23 05:03:27;;;;;;;0.40;0.40;;;4.50;70.70;;;;;;5054296;28;20396;-62
2022/03/23 05:05:52;;;;;;;0.30;0.30;;;4.40;70.20;;;;;;5053418;28;20194;-62
2022/03/23 05:08:18;;;;;;;0.40;0.40;;;4.50;70.40;;;;;;5054063;28;20170;-61
2022/03/23 05:10:44;;;;;;;0.30;0.30;;;4.40;70.70;;;;;;5053905;28;20172;-62
2022/03/23 05:13:11;;;;;;;0.30;0.30;;;4.40;70.80;;;;;;5053819;28;20282;-61
2022/03/23 05:15:37;;;;;;;0.30;0.30;;;4.50;71.10;;;;;;5054107;28;20176;-63
2022/03/23 05:18:04;;;;;;;0.30;0.30;;;4.40;70.90;;;;;;5054019;28;20191;-61
2022/03/23 05:20:30;;;;;;;0.30;0.30;;;4.40;71.30;;;;;;5053873;28;20185;-62
2022/03/23 05:22:56;;;;;;;0.30;0.30;;;4.40;71.90;;;;;;5054225;28;20180;-63
2022/03/23 05:25:22;;;;;;;0.60;0.60;;;4.40;71.90;;;;;;5053978;28;20173;-64
2022/03/23 05:27:48;;;;;;;0.30;0.30;;;4.40;72.60;;;;;;5054049;28;20196;-63
2022/03/23 05:30:14;;;;;;;0.30;0.30;;;4.40;71.90;;;;;;5053861;28;20431;-64
2022/03/23 05:32:42;;;;;;;0.30;0.30;;;4.40;71.80;;;;;;5053827;28;20573;-63
2022/03/23 05:35:08;;;;;;;0.32;0.32;;;4.50;71.70;;;;;;5053949;28;20904;-63
2022/03/23 05:37:34;;;;;;;0.30;0.30;;;4.50;71.80;;;;;;5053553;28;20190;-63
2022/03/23 05:40:05;;;;;;;0.40;0.40;;;4.60;72.20;;;;;;5052640;28;20255;-62
2022/03/23 05:42:31;;;;;;;0.30;0.30;;;4.50;71.20;;;;;;5053686;28;20634;-63
2022/03/23 05:44:57;;;;;;;0.40;0.40;;;4.50;71.20;;;;;;5053872;28;20542;-63
2022/03/23 05:47:22;;;;;;;0.40;0.40;;;4.70;71.40;;;;;;5053665;28;20197;-63
2022/03/23 05:49:48;;;;;;;0.30;0.30;;;4.70;71.80;;;;;;5053628;28;20335;-63
2022/03/23 05:52:14;;;;;;;1.03;1.03;;;4.80;70.70;;;;;;5053177;28;20204;-62
2022/03/23 05:54:39;;;;;;;0.30;0.30;;;4.80;71.00;;;;;;5053661;28;20173;-63
2022/03/23 05:57:05;;;;;;;0.40;0.40;;;4.90;70.70;;;;;;5053401;28;20269;-63
2022/03/23 05:59:31;;;;;;;0.30;0.30;;;5.00;70.80;;;;;;5053521;28;20173;-64
2022/03/23 06:02:01;;;;;;;0.30;0.30;;;5.00;69.70;;;;;;5053262;28;20433;-62
2022/03/23 06:04:27;;;;;;;0.30;0.30;;;5.10;68.90;;;;;;5053561;28;20591;-62
2022/03/23 06:06:53;;;;;;;0.30;0.30;;;5.20;68.40;;;;;;5053236;28;20196;-62
2022/03/23 06:09:22;;;;;;;0.50;0.50;;;5.20;68.80;;;;;;5053277;28;20182;-62
2022/03/23 06:11:47;;;;;;;0.40;0.40;;;5.30;69.40;;;;;;5053047;28;20243;-63
2022/03/23 06:14:13;;;;;;;0.30;0.30;;;5.20;70.50;;;;;;5053474;28;20564;-63
2022/03/23 06:16:39;;;;;;;0.30;0.30;;;5.10;71.20;;;;;;5057225;28;20197;-63
2022/03/23 06:19:04;;;;;;;0.30;0.30;;;5.00;72.70;;;;;;5059849;28;20449;-62
2022/03/23 06:21:30;;;;;;;0.30;0.30;;;5.10;73.20;;;;;;5059192;28;20181;-63
2022/03/23 06:23:56;;;;;;;0.30;0.30;;;5.20;73.90;;;;;;5058810;28;20183;-63
2022/03/23 06:26:21;;;;;;;0.30;0.30;;;5.40;72.80;;;;;;5059776;28;20181;-63
2022/03/23 06:28:47;;;;;;;0.40;0.40;;;5.50;71.80;;;;;;5059806;28;20176;-63
2022/03/23 06:31:13;;;;;;;0.30;0.30;;;5.40;70.30;;;;;;5059479;28;20208;-63
2022/03/23 06:33:38;;;;;;;0.30;0.30;;;5.70;70.50;;;;;;5060007;28;20169;-63
2022/03/23 06:36:04;;;;;;;0.40;0.40;;;5.90;69.70;;;;;;5059865;28;20598;-62
2022/03/23 06:38:30;;;;;;;0.40;0.40;;;6.00;69.20;;;;;;5059720;28;20168;-63
2022/03/23 06:40:56;;;;;;;0.63;0.63;;;6.10;69.00;;;;;;5059760;28;20761;-63
2022/03/23 06:43:22;;;;;;;0.30;0.30;;;6.20;69.30;;;;;;5059737;28;20174;-62
2022/03/23 06:45:47;;;;;;;0.33;0.33;;;6.20;69.20;;;;;;5059737;28;20189;-63
2022/03/23 06:48:13;;;;;;;0.37;0.37;;;6.50;69.50;;;;;;5059634;28;20177;-64
2022/03/23 06:50:39;;;;;;;0.40;0.40;;;6.70;67.80;;;;;;5059337;28;20292;-63
2022/03/23 06:53:04;;;;;;;0.40;0.40;;;7.20;65.40;;;;;;5059584;28;20197;-63
2022/03/23 06:55:30;;;;;;;1.27;1.00;;;7.70;63.60;;;;;;5059738;28;20201;-64
2022/03/23 06:57:56;;;;;;;0.40;0.40;;;8.70;60.80;;;;;;5059552;28;20187;-63
2022/03/23 07:00:22;;;;;;;0.40;0.40;;;10.00;57.00;;;;;;5059251;28;20566;-63
2022/03/23 07:02:49;;;;;;;0.30;0.30;;;11.30;53.70;;;;;;5059737;28;20257;-64
2022/03/23 07:05:16;;;;;;;0.30;0.30;;;12.60;51.60;;;;;;5059955;28;20177;-64
2022/03/23 07:10:27;;;;;;;1.37;1.27;;;14.80;46.60;;;;;;5059624;28;20185;-64
2022/03/23 07:12:53;;;;;;;0.40;0.40;;;15.90;43.70;;;;;;5059562;28;20942;-69
2022/03/23 07:15:19;;;;;;;0.50;0.50;;;16.80;46.20;;;;;;5057553;28;20408;-64
2022/03/23 07:17:45;;;;;;;0.60;0.60;;;17.90;40.50;;;;;;5059184;28;20432;-63
2022/03/23 07:20:11;;;;;;;0.40;0.40;;;17.90;39.20;;;;;;5059338;28;20173;-64
2022/03/23 07:22:37;;;;;;;0.40;0.40;;;18.10;38.80;;;;;;5059659;28;20189;-64
2022/03/23 07:25:03;;;;;;;0.40;0.40;;;18.60;37.90;;;;;;5059596;28;20404;-62
2022/03/23 07:27:29;;;;;;;0.40;0.40;;;19.30;37.20;;;;;;5057463;28;20275;-61
2022/03/23 07:29:55;;;;;;;0.30;0.30;;;19.90;36.60;;;;;;5056352;28;20411;-60
2022/03/23 07:32:21;;;;;;;0.40;0.40;;;20.50;35.80;;;;;;5055806;28;20892;-62
2022/03/23 07:34:46;;;;;;;0.40;0.40;;;21.10;33.60;;;;;;5055894;28;20455;-62
2022/03/23 07:37:12;;;;;;;3.23;1.47;;;21.50;32.10;;;;;;5055856;28;20560;-61
2022/03/23 07:39:38;;;;;;;0.50;0.50;;;21.80;31.30;;;;;;5056486;28;20249;-62
2022/03/23 07:42:05;;;;;;;2.13;1.67;;;21.80;31.20;;;;;;5056061;28;20886;-62
2022/03/23 07:44:32;;;;;;;0.47;0.47;;;21.80;30.90;;;;;;5056326;28;20171;-62
2022/03/23 07:46:58;;;;;;;4.13;1.20;;;21.60;32.60;;;;;;5053936;28;20420;-61
2022/03/23 07:49:24;;;;;;;1.13;1.07;;;21.40;31.70;;;;;;5055367;28;20807;-62
2022/03/23 07:51:50;;;;;;;0.47;0.47;;;21.50;31.40;;;;;;5055802;28;20451;-63
2022/03/23 07:54:16;;;;;;;0.73;0.73;;;21.90;32.60;;;;;;5053469;28;20542;-64
2022/03/23 07:56:41;;;;;;;0.50;0.50;;;22.30;31.80;;;;;;5055391;28;20190;-64
2022/03/23 07:59:07;;;;;;;2.40;2.00;;;23.00;33.00;;;;;;5056021;28;20165;-62
2022/03/23 08:01:33;;;;;;;0.87;0.87;;;23.60;31.00;;;;;;5055271;28;20198;-63
2022/03/23 08:03:59;;;;;;;0.30;0.30;;;24.40;32.00;;;;;;5055611;28;20740;-63
2022/03/23 08:06:26;;;;;;;0.50;0.50;;;24.90;29.30;;;;;;5055530;28;20218;-62
2022/03/23 08:08:52;;;;;;;0.67;0.67;;;25.00;29.30;;;;;;5055673;28;20772;-62
2022/03/23 08:11:18;;;;;;;0.87;0.87;;;25.40;28.60;;;;;;5053023;28;20417;-64
2022/03/23 08:13:44;;;;;;;1.13;1.13;;;25.80;29.50;;;;;;5055074;28;20405;-65
2022/03/23 08:16:09;;;;;;;0.63;0.63;;;25.80;27.70;;;;;;5054720;28;20417;-71
2022/03/23 08:18:36;;;;;;;0.70;0.50;;;25.70;28.20;;;;;;5053648;28;20167;-76
2022/03/23 08:21:01;;;;;;;0.40;0.40;;;25.70;28.20;;;;;;5055235;28;20617;-75
2022/03/23 08:23:30;;;;;;;0.30;0.30;;;25.70;27.40;;;;;;5055746;28;20418;-70
2022/03/23 08:25:56;;;;;;;0.60;0.60;;;25.80;26.60;;;;;;5054963;28;20196;-77
2022/03/23 08:28:22;;;;;;;0.30;0.30;;;26.10;26.20;;;;;;5053227;28;20461;-73
2022/03/23 08:30:47;;;;;;;0.80;0.80;;;26.30;26.50;;;;;;5053610;28;20412;-72
2022/03/23 08:33:13;;;;;;;0.93;0.90;;;26.70;23.20;;;;;;5055093;28;20878;-65
2022/03/23 08:35:39;;;;;;;0.77;0.77;;;26.70;22.10;;;;;;5055046;28;20190;-68
2022/03/23 08:38:06;;;;;;;0.50;0.50;;;27.00;25.80;;;;;;5055286;28;20494;-64
2022/03/23 08:40:32;;;;;;;0.50;0.50;;;27.40;24.00;;;;;;5054776;28;20401;-66
2022/03/23 08:42:58;;;;;;;2.23;2.03;;;27.70;22.30;;;;;;5055083;28;20415;-74
2022/03/23 08:45:25;;;;;;;0.67;0.50;;;27.80;21.60;;;;;;5054448;28;20401;-62
2022/03/23 08:47:51;;;;;;;0.77;0.77;;;28.20;20.90;;;;;;5052471;28;20247;-63
2022/03/23 08:50:18;;;;;;;1.60;1.50;;;28.10;20.90;;;;;;5054538;28;20506;-63
2022/03/23 08:52:44;;;;;;;0.87;0.87;;;28.40;20.20;;;;;;5054517;28;20535;-62
2022/03/23 08:55:17;;;;;;;0.40;0.40;;;29.00;21.10;;;;;;5052268;28;20501;-62
2022/03/23 08:57:43;;;;;;;0.70;0.50;;;29.70;20.00;;;;;;5053821;28;20406;-63
2022/03/23 09:00:11;;;;;;;0.90;0.90;;;29.90;19.30;;;;;;5053624;28;20790;-62
2022/03/23 09:02:37;;;;;;;0.67;0.67;;;30.10;20.00;;;;;;5051715;28;20180;-62
2022/03/23 09:05:03;;;;;;;0.40;0.40;;;30.00;20.20;;;;;;5054129;28;20408;-63
2022/03/23 09:07:32;;;;;;;1.80;1.43;;;29.90;19.50;;;;;;5054146;28;20197;-62
2022/03/23 09:09:57;;;;;;;0.40;0.40;;;29.90;19.90;;;;;;5054081;28;20405;-63
2022/03/23 09:12:23;;;;;;;1.13;1.13;;;30.20;19.80;;;;;;5054528;28;20862;-65
2022/03/23 09:14:49;;;;;;;0.50;0.50;;;29.40;20.40;;;;;;5054171;28;20562;-64
2022/03/23 09:17:14;;;;;;;1.83;0.83;;;28.80;21.40;;;;;;5054122;28;20189;-64
2022/03/23 09:19:40;;;;;;;0.90;0.90;;;28.50;22.40;;;;;;5054317;28;20166;-64
2022/03/23 09:22:06;;;;;;;0.57;0.57;;;28.80;20.80;;;;;;5052083;28;20170;-64
2022/03/23 09:24:32;;;;;;;0.53;0.53;;;28.80;22.00;;;;;;5054002;28;20220;-65
2022/03/23 09:26:58;;;;;;;0.40;0.40;;;28.80;22.40;;;;;;5054040;28;20395;-64
2022/03/23 09:29:23;;;;;;;2.00;1.90;;;26.60;23.90;;;;;;5053948;28;20518;-65
2022/03/23 09:31:49;;;;;;;3.50;1.70;;;26.00;23.80;;;;;;5053769;28;20588;-64
2022/03/23 09:34:15;;;;;;;0.60;0.60;;;26.30;23.00;;;;;;5054300;28;20756;-64
2022/03/23 09:39:26;;;;;;;2.77;2.67;;;27.70;22.30;;;;;;5053731;28;20181;-64
2022/03/23 09:41:53;;;;;;;2.73;2.00;;;28.30;20.40;;;;;;5052524;28;20395;-65
2022/03/23 09:44:20;;;;;;;0.40;0.40;;;28.90;22.30;;;;;;5051624;28;20627;-64
2022/03/23 09:46:46;;;;;;;0.73;0.67;;;29.40;22.20;;;;;;5052776;28;20429;-65
2022/03/23 09:49:12;;;;;;;6.67;1.00;;;29.10;22.10;;;;;;5052186;28;20680;-64
2022/03/23 09:51:39;;;;;;;0.90;0.90;;;29.00;21.80;;;;;;5051270;28;20194;-64
2022/03/23 09:54:05;;;;;;;1.27;1.10;;;29.00;21.00;;;;;;5052846;28;20372;-65
2022/03/23 09:56:31;;;;;;;0.63;0.63;;;29.00;21.00;;;;;;5051235;28;20399;-66
2022/03/23 09:58:58;;;;;;;0.70;0.50;;;29.40;19.50;;;;;;5053167;28;20403;-65
2022/03/23 10:01:30;;;;;;;1.03;1.03;;;29.80;21.00;;;;;;5052690;28;20420;-65
2022/03/23 10:04:46;;;;;;;0.30;0.30;;;29.90;19.60;;;;;;5050935;28;20436;-64
2022/03/23 10:07:26;;;;;;;0.50;0.50;;;28.00;19.90;;;;;;5052478;28;20425;-64
2022/03/23 10:10:08;;;;;;;0.40;0.40;;;29.10;19.30;;;;;;5051840;28;20419;-65
2022/03/23 10:12:39;;;;;;;0.40;0.40;;;30.00;18.30;;;;;;5052617;28;20444;-66
2022/03/23 10:15:43;;;;;;;0.40;0.40;;;30.90;18.40;;;;;;5053418;28;20399;-64
2022/03/23 10:18:34;;;;;;;1.73;1.23;;;31.10;17.70;;;;;;5051095;28;20400;-65
2022/03/23 10:21:03;;;;;;;1.37;1.03;;;31.10;18.40;;;;;;5051972;28;20389;-66
2022/03/23 10:23:30;;;;;;;1.37;1.27;;;31.10;19.00;;;;;;5051509;28;20989;-66
2022/03/23 10:25:55;;;;;;;0.70;0.70;;;30.90;19.60;;;;;;5051282;28;20416;-63
2022/03/23 10:28:21;;;;;;;0.40;0.40;;;31.00;19.00;;;;;;5052768;28;20759;-63
2022/03/23 10:30:47;;;;;;;0.83;0.83;;;30.70;17.80;;;;;;5053076;28;20174;-63
2022/03/23 10:33:22;;;;;;;0.40;0.40;;;30.40;18.40;;;;;;5051463;28;20190;-63
2022/03/23 10:35:49;;;;;;;1.53;1.43;;;30.40;17.80;;;;;;5052691;28;20400;-63
2022/03/23 10:38:19;;;;;;;1.77;1.67;;;30.00;18.00;;;;;;5053862;28;20425;-63
2022/03/23 10:40:46;;;;;;;0.63;0.63;;;28.50;19.20;;;;;;5052882;28;20453;-62
2022/03/23 10:43:23;;;;;;;0.60;0.60;;;27.80;19.60;;;;;;5053468;28;20454;-62
2022/03/23 10:45:49;;;;;;;1.27;0.80;;;28.30;20.10;;;;;;5052937;28;20463;-62
2022/03/23 10:48:17;;;;;;;3.17;1.63;;;29.10;19.60;;;;;;5052898;28;20930;-63
2022/03/23 10:50:53;;;;;;;3.03;1.70;;;29.40;19.50;;;;;;5052934;28;20196;-63
2022/03/23 10:53:34;;;;;;;1.80;1.40;;;28.20;19.90;;;;;;5052704;28;20466;-62
2022/03/23 10:56:01;;;;;;;0.60;0.60;;;27.30;22.90;;;;;;5052632;28;20512;-63
2022/03/23 10:58:28;;;;;;;0.40;0.40;;;25.30;24.20;;;;;;5051001;28;20403;-62
2022/03/23 11:00:56;;;;;;;0.70;0.70;;;24.70;25.10;;;;;;5052868;28;20760;-63
2022/03/23 11:03:41;;;;;;;0.30;0.30;;;24.20;25.40;;;;;;5054383;28;20841;-63
2022/03/23 11:06:09;;;;;;;0.40;0.40;;;22.90;27.10;;;;;;5056741;28;20491;-63
2022/03/23 11:08:35;;;;;;;0.40;0.40;;;23.10;26.70;;;;;;5056489;28;20386;-62
2022/03/23 11:16:52;;;;;;;4.73;4.00;;;22.50;27.40;;;;;;5056215;28;20420;-62
2022/03/23 11:19:26;;;;;;;0.30;0.30;;;22.20;27.40;;;;;;5054585;28;20409;-62
2022/03/23 11:22:10;;;;;;;1.17;0.80;;;21.70;27.70;;;;;;5056215;28;20760;-62
2022/03/23 11:24:38;;;;;;;3.23;0.73;;;21.80;28.80;;;;;;5056318;28;20900;-62
2022/03/23 11:27:18;;;;;;;0.53;0.53;;;21.90;28.40;;;;;;5053282;28;21240;-63
2022/03/23 11:29:44;;;;;;;0.30;0.30;;;21.80;27.90;;;;;;5054643;28;20465;-62
2022/03/23 11:32:15;;;;;;;0.40;0.40;;;21.30;28.40;;;;;;5055766;28;20451;-61
2022/03/23 11:34:48;;;;;;;0.90;0.90;;;20.30;29.10;;;;;;5055944;28;20840;-62
2022/03/23 11:37:16;;;;;;;0.60;0.60;;;19.20;29.80;;;;;;5055897;28;20454;-63
2022/03/23 11:39:43;;;;;;;0.70;0.70;;;19.10;30.60;;;;;;5056015;28;20965;-61
2022/03/23 11:42:11;;;;;;;1.03;1.03;;;19.40;30.60;;;;;;5055851;28;20765;-61
2022/03/23 11:44:38;;;;;;;0.43;0.43;;;19.30;30.30;;;;;;5055717;28;20763;-62
2022/03/23 11:47:31;;;;;;;1.00;0.83;;;19.30;30.10;;;;;;5056269;28;20781;-64
2022/03/23 11:50:27;;;;;;;0.50;0.50;;;19.20;29.80;;;;;;5055909;28;20410;-65
2022/03/23 11:53:26;;;;;;;0.50;0.50;;;18.90;29.70;;;;;;5055460;28;20810;-65
2022/03/23 11:55:53;;;;;;;0.30;0.30;;;19.00;28.30;;;;;;5055735;28;20446;-64
2022/03/23 11:58:22;;;;;;;1.13;1.13;;;19.10;28.80;;;;;;5055684;28;20937;-65
2022/03/23 12:00:51;;;;;;;0.30;0.30;;;19.10;29.80;;;;;;5055362;28;20813;-64
2022/03/23 12:03:43;;;;;;;1.00;1.00;;;18.30;31.50;;;;;;5055774;28;20436;-64
2022/03/23 12:06:13;;;;;;;0.40;0.40;;;18.50;31.60;;;;;;5055669;28;20519;-65
2022/03/23 12:08:49;;;;;;;2.10;1.13;;;18.00;31.20;;;;;;5055601;28;20389;-65
2022/03/23 12:11:43;;;;;;;0.60;0.60;;;18.40;30.90;;;;;;5055219;28;20405;-65
2022/03/23 12:14:31;;;;;;;0.47;0.47;;;18.70;30.60;;;;;;5054956;28;20416;-65
2022/03/23 12:16:57;;;;;;;0.60;0.60;;;18.00;31.70;;;;;;5055114;28;20797;-65
2022/03/23 12:19:33;;;;;;;3.67;3.47;;;17.80;31.50;;;;;;5055257;28;20401;-64
2022/03/23 12:22:05;;;;;;;1.27;1.27;;;17.90;32.00;;;;;;5055176;28;20171;-64
2022/03/23 12:25:04;;;;;;;0.30;0.30;;;18.50;31.50;;;;;;5055210;28;20395;-65
2022/03/23 12:27:49;;;;;;;2.20;2.10;;;18.90;31.30;;;;;;5055069;28;20412;-64
2022/03/23 12:30:34;;;;;;;0.30;0.30;;;18.80;31.20;;;;;;5055098;28;20488;-64
2022/03/23 12:33:08;;;;;;;0.60;0.53;;;19.00;30.60;;;;;;5055191;28;20958;-64
2022/03/23 12:35:35;;;;;;;0.73;0.73;;;19.40;30.90;;;;;;5055243;28;20390;-65
2022/03/23 12:38:03;;;;;;;0.30;0.30;;;19.00;30.00;;;;;;5054903;28;20902;-64
2022/03/23 12:40:39;;;;;;;0.30;0.30;;;18.20;31.00;;;;;;5054829;28;20860;-65
2022/03/23 12:43:05;;;;;;;1.23;1.13;;;17.30;32.20;;;;;;5054845;28;20431;-64
2022/03/23 12:45:39;;;;;;;0.30;0.30;;;17.40;33.20;;;;;;5054825;28;20416;-64
2022/03/23 12:57:49;;;;;;;1.17;1.17;;;17.60;33.70;;;;;;5054892;28;20162;-64
2022/03/23 12:59:21;;;;;;;3.80;2.00;;;17.10;32.90;;;;;;5054667;28;20419;-65
2022/03/23 13:01:54;;;;;;;1.00;0.90;;;17.50;31.80;;;;;;5054281;28;20429;-65
2022/03/23 13:04:40;;;;;;;0.80;0.80;;;18.00;32.20;;;;;;5054455;28;20829;-65
2022/03/23 13:07:28;;;;;;;0.60;0.60;;;18.00;31.20;;;;;;5054381;28;20607;-64
2022/03/23 13:09:55;;;;;;;0.40;0.40;;;17.60;30.40;;;;;;5053871;28;20421;-63
2022/03/23 13:12:26;;;;;;;0.70;0.70;;;17.20;31.60;;;;;;5054195;28;20449;-64
2022/03/23 13:14:51;;;;;;;0.30;0.30;;;17.50;31.00;;;;;;5054483;28;20396;-65
2022/03/23 13:17:19;;;;;;;0.40;0.40;;;17.90;31.00;;;;;;5054187;28;20422;-65
2022/03/23 13:19:44;;;;;;;0.30;0.30;;;18.00;30.90;;;;;;5054395;28;20197;-64
2022/03/23 13:22:10;;;;;;;0.30;0.30;;;17.60;30.80;;;;;;5054037;28;20407;-64
2022/03/23 13:24:36;;;;;;;5.57;2.00;;;17.50;30.70;;;;;;5053984;28;20174;-65
2022/03/23 13:27:11;;;;;;;3.70;0.97;;;17.60;30.30;;;;;;5053411;28;20201;-65